Time;durP1;ratioP1;P1;durP2;ratioP2;P2;SDS_P1;SDS_P2;PMS_P1;PMS_P2;Temp;Humidity;BMP_temperature;BMP_pressure;BME280_temperature;BME280_humidity;BME280_pressure;Samples;Min_cycle;Max_cycle;Signal;HPM_P1;HPM_P2
2023/03/08 00:02:15;;;;;;;4.43;3.70;;;1.80;99.90;;;;;;4981057;28;20057;-81
2023/03/08 00:04:42;;;;;;;7.03;4.50;;;1.80;99.90;;;;;;4971001;28;20053;-81
2023/03/08 00:07:10;;;;;;;4.68;3.95;;;1.80;99.90;;;;;;4982428;28;20095;-82
2023/03/08 00:09:38;;;;;;;5.68;4.13;;;1.90;99.90;;;;;;4982152;28;20509;-81
2023/03/08 00:12:07;;;;;;;5.75;4.25;;;1.90;99.90;;;;;;4979985;28;20054;-82
2023/03/08 00:14:34;;;;;;;6.13;4.93;;;1.90;99.90;;;;;;4983734;28;20124;-81
2023/03/08 00:17:02;;;;;;;5.82;4.72;;;1.90;99.90;;;;;;4979591;28;20489;-81
2023/03/08 00:19:29;;;;;;;5.43;4.60;;;2.00;99.90;;;;;;4977383;28;20053;-81
2023/03/08 00:21:57;;;;;;;5.68;4.70;;;1.90;99.90;;;;;;4991615;28;20053;-81
2023/03/08 00:24:25;;;;;;;5.15;4.00;;;2.00;99.90;;;;;;4989934;28;20052;-82
2023/03/08 00:26:52;;;;;;;5.22;4.68;;;2.00;99.90;;;;;;4982286;28;20057;-82
2023/03/08 00:29:19;;;;;;;4.65;3.75;;;2.00;99.90;;;;;;4980247;28;20057;-82
2023/03/08 00:31:47;;;;;;;5.88;5.03;;;2.00;99.90;;;;;;4989565;28;20057;-82
2023/03/08 00:34:15;;;;;;;6.50;5.25;;;2.00;99.90;;;;;;4990739;28;20134;-82
2023/03/08 00:36:42;;;;;;;6.60;5.50;;;2.00;99.90;;;;;;4989257;28;20500;-81
2023/03/08 00:39:10;;;;;;;6.28;5.07;;;2.00;99.90;;;;;;5002388;28;20341;-81
2023/03/08 00:41:37;;;;;;;6.18;5.15;;;2.00;99.90;;;;;;5006992;28;20504;-81
2023/03/08 00:44:04;;;;;;;6.45;5.05;;;2.10;99.90;;;;;;4988478;28;20144;-81
2023/03/08 00:46:31;;;;;;;6.63;5.25;;;2.10;99.90;;;;;;4968576;28;20212;-81
2023/03/08 00:48:58;;;;;;;7.93;6.22;;;2.10;99.90;;;;;;4985380;28;20069;-81
2023/03/08 00:51:25;;;;;;;7.25;5.93;;;2.10;99.90;;;;;;4988319;28;20060;-81
2023/03/08 00:53:52;;;;;;;7.40;6.60;;;2.10;99.90;;;;;;4988623;28;20052;-82
2023/03/08 00:56:20;;;;;;;7.70;6.80;;;2.10;99.90;;;;;;4969337;28;20054;-81
2023/03/08 00:58:47;;;;;;;7.25;6.13;;;2.10;99.90;;;;;;4993239;28;20058;-81
2023/03/08 01:01:16;;;;;;;8.07;6.68;;;2.20;99.90;;;;;;5001126;28;20053;-81
2023/03/08 01:03:44;;;;;;;7.45;5.60;;;2.10;99.90;;;;;;4637616;28;10000391;-81
2023/03/08 01:06:12;;;;;;;7.90;6.18;;;2.10;99.90;;;;;;5019601;28;20045;-82
2023/03/08 01:08:40;;;;;;;8.02;5.85;;;2.10;99.90;;;;;;4986933;28;20132;-82
2023/03/08 01:11:19;;;;;;;6.88;5.55;;;2.10;99.90;;;;;;5005550;28;21000;-81
2023/03/08 01:13:46;;;;;;;8.35;5.97;;;2.20;99.90;;;;;;4990227;28;20187;-81
2023/03/08 01:16:18;;;;;;;7.32;6.38;;;2.20;99.90;;;;;;5024212;28;20147;-81
2023/03/08 01:18:44;;;;;;;8.73;7.00;;;2.20;99.90;;;;;;5041083;28;20053;-81
2023/03/08 01:21:11;;;;;;;7.93;6.63;;;2.20;99.90;;;;;;4987697;28;20068;-82
2023/03/08 01:23:39;;;;;;;9.40;7.70;;;2.20;99.90;;;;;;4998849;28;20489;-82
2023/03/08 01:26:11;;;;;;;9.90;7.15;;;2.20;99.90;;;;;;5004930;28;20054;-82
2023/03/08 01:28:38;;;;;;;8.00;6.63;;;2.20;99.90;;;;;;5004380;28;20046;-81
2023/03/08 01:31:15;;;;;;;6.13;5.35;;;2.20;99.90;;;;;;4972617;28;20068;-81
2023/03/08 01:33:43;;;;;;;8.65;7.22;;;2.30;99.90;;;;;;4993534;28;20378;-81
2023/03/08 01:36:14;;;;;;;8.88;7.15;;;2.30;99.90;;;;;;5015466;28;20269;-81
2023/03/08 01:38:42;;;;;;;9.05;7.80;;;2.20;99.90;;;;;;5003428;28;20084;-81
2023/03/08 01:41:33;;;;;;;9.13;7.53;;;2.30;99.90;;;;;;5003223;28;20072;-81
2023/03/08 01:44:00;;;;;;;9.02;6.90;;;2.30;99.90;;;;;;5013378;28;20611;-81
2023/03/08 01:46:28;;;;;;;10.02;7.75;;;2.30;99.90;;;;;;4984542;28;20067;-81
2023/03/08 01:49:04;;;;;;;8.63;7.38;;;2.30;99.90;;;;;;4986935;28;20455;-81
2023/03/08 01:51:42;;;;;;;9.70;7.50;;;2.30;99.90;;;;;;5006611;28;20052;-81
2023/03/08 01:54:13;;;;;;;10.20;7.85;;;2.30;99.90;;;;;;4984346;28;20048;-81
2023/03/08 01:56:41;;;;;;;8.48;7.40;;;2.30;99.90;;;;;;4991376;28;20088;-81
2023/03/08 01:59:08;;;;;;;8.75;7.35;;;2.30;99.90;;;;;;4983122;28;20146;-81
2023/03/08 02:01:35;;;;;;;9.40;7.88;;;2.30;99.90;;;;;;4989674;28;20084;-81
2023/03/08 02:04:02;;;;;;;10.57;8.30;;;2.30;99.90;;;;;;4985757;28;20143;-81
2023/03/08 02:06:29;;;;;;;9.73;7.80;;;2.30;99.90;;;;;;4970059;28;20448;-81
2023/03/08 02:08:56;;;;;;;9.70;8.05;;;2.30;99.90;;;;;;4982167;28;20052;-81
2023/03/08 02:11:24;;;;;;;9.45;7.65;;;2.30;99.90;;;;;;4985389;28;20080;-81
2023/03/08 02:13:51;;;;;;;9.38;7.53;;;2.30;99.90;;;;;;5013390;28;20048;-81
2023/03/08 02:16:18;;;;;;;9.70;7.38;;;2.30;99.90;;;;;;4999514;28;20115;-81
2023/03/08 02:18:51;;;;;;;8.20;7.03;;;2.30;99.90;;;;;;5003731;28;20061;-81
2023/03/08 02:21:18;;;;;;;10.02;7.75;;;2.30;99.90;;;;;;5003508;28;20136;-80
2023/03/08 02:23:45;;;;;;;8.35;6.82;;;2.40;99.90;;;;;;5006396;28;20044;-81
2023/03/08 02:26:12;;;;;;;8.25;6.70;;;2.40;99.90;;;;;;5023777;28;20821;-81
2023/03/08 02:28:39;;;;;;;8.57;6.97;;;2.40;99.90;;;;;;5006888;28;20053;-81
2023/03/08 02:31:06;;;;;;;7.32;6.22;;;2.40;99.90;;;;;;4613115;28;9999769;-81
2023/03/08 02:33:33;;;;;;;6.90;5.82;;;2.40;99.90;;;;;;4996393;28;20057;-81
2023/03/08 02:36:01;;;;;;;6.50;5.57;;;2.40;99.90;;;;;;4990309;28;20460;-81
2023/03/08 02:38:29;;;;;;;7.57;6.57;;;2.40;99.90;;;;;;5004297;28;20053;-81
2023/03/08 02:40:56;;;;;;;7.18;5.70;;;2.40;99.90;;;;;;4986213;28;20049;-81
2023/03/08 02:43:23;;;;;;;9.57;7.35;;;2.50;99.90;;;;;;5004572;28;20048;-81
2023/03/08 02:45:50;;;;;;;8.38;7.35;;;2.40;99.90;;;;;;4984566;28;20050;-81
2023/03/08 02:48:17;;;;;;;8.82;7.25;;;2.40;99.90;;;;;;4986086;28;20061;-80
2023/03/08 02:50:45;;;;;;;9.00;6.78;;;2.40;99.90;;;;;;4985107;28;20051;-81
2023/03/08 02:53:12;;;;;;;9.95;6.93;;;2.50;99.90;;;;;;4997800;28;20051;-80
2023/03/08 02:55:39;;;;;;;9.43;7.60;;;2.50;99.90;;;;;;4981691;28;20132;-81
2023/03/08 02:58:08;;;;;;;8.75;7.03;;;2.50;99.90;;;;;;4987881;28;20060;-81
2023/03/08 03:00:35;;;;;;;9.48;7.75;;;2.50;99.90;;;;;;4989873;28;20052;-81
2023/03/08 03:03:02;;;;;;;11.45;9.15;;;2.50;99.90;;;;;;4993621;28;20041;-81
2023/03/08 03:05:30;;;;;;;11.30;9.52;;;2.50;99.90;;;;;;4990051;28;20141;-81
2023/03/08 03:07:57;;;;;;;10.75;8.52;;;2.50;99.90;;;;;;4990252;28;20476;-81
2023/03/08 03:10:25;;;;;;;11.57;8.82;;;2.50;99.90;;;;;;5005047;28;20107;-81
2023/03/08 03:12:52;;;;;;;11.32;8.77;;;2.50;99.90;;;;;;4992279;28;20433;-81
2023/03/08 03:15:19;;;;;;;12.02;9.57;;;2.50;99.90;;;;;;4993602;28;20053;-81
2023/03/08 03:17:47;;;;;;;11.48;9.20;;;2.50;99.90;;;;;;5006085;28;20236;-81
2023/03/08 03:20:14;;;;;;;10.43;8.10;;;2.50;99.90;;;;;;4988049;28;20045;-81
2023/03/08 03:22:41;;;;;;;10.70;8.32;;;2.40;99.90;;;;;;5000934;28;20071;-82
2023/03/08 03:25:09;;;;;;;11.02;9.30;;;2.40;99.90;;;;;;4978160;28;20145;-81
2023/03/08 03:27:36;;;;;;;10.45;8.25;;;2.40;99.90;;;;;;4989488;28;20111;-82
2023/03/08 03:30:04;;;;;;;9.82;8.35;;;2.30;99.90;;;;;;4975861;28;20053;-80
2023/03/08 03:32:32;;;;;;;10.13;7.70;;;2.30;99.90;;;;;;4979543;28;20536;-82
2023/03/08 03:34:59;;;;;;;11.90;8.25;;;2.30;99.90;;;;;;5007097;28;20056;-81
2023/03/08 03:37:26;;;;;;;9.57;7.97;;;2.30;99.90;;;;;;4975210;28;20699;-81
2023/03/08 03:39:53;;;;;;;10.27;7.68;;;2.30;99.90;;;;;;4986678;28;20045;-81
2023/03/08 03:42:20;;;;;;;10.20;7.45;;;2.30;99.90;;;;;;5013373;28;20049;-82
2023/03/08 03:44:48;;;;;;;11.15;7.75;;;2.30;99.90;;;;;;4970170;28;20046;-81
2023/03/08 03:47:16;;;;;;;8.63;7.60;;;2.30;99.90;;;;;;5018792;28;20465;-81
2023/03/08 03:49:43;;;;;;;9.40;7.32;;;2.30;99.90;;;;;;5004137;28;20406;-80
2023/03/08 03:52:10;;;;;;;9.05;7.13;;;2.30;99.90;;;;;;4983495;28;20088;-81
2023/03/08 03:54:37;;;;;;;8.85;6.90;;;2.30;99.90;;;;;;5022090;28;20132;-80
2023/03/08 03:57:04;;;;;;;9.63;6.95;;;2.20;99.90;;;;;;4983107;28;20540;-80
2023/03/08 03:59:32;;;;;;;9.25;7.03;;;2.20;99.90;;;;;;4968870;28;20050;-80
2023/03/08 04:01:59;;;;;;;9.30;6.65;;;2.20;99.90;;;;;;5004753;28;20524;-81
2023/03/08 04:04:26;;;;;;;8.43;6.40;;;2.20;99.90;;;;;;4995388;28;20137;-80
2023/03/08 04:06:53;;;;;;;7.70;6.10;;;2.20;99.90;;;;;;4985827;28;20046;-81
2023/03/08 04:09:20;;;;;;;8.55;7.00;;;2.10;99.90;;;;;;4972750;28;20057;-80
2023/03/08 04:11:47;;;;;;;7.43;6.05;;;2.10;99.90;;;;;;5009277;28;20500;-80
2023/03/08 04:14:14;;;;;;;7.53;5.78;;;2.10;99.90;;;;;;4989816;28;20103;-80
2023/03/08 04:16:41;;;;;;;7.65;5.88;;;2.10;99.90;;;;;;5019668;28;20052;-80
2023/03/08 04:19:10;;;;;;;8.65;6.28;;;2.10;99.90;;;;;;5007019;28;20049;-80
2023/03/08 04:21:37;;;;;;;7.85;5.85;;;2.00;99.90;;;;;;4994067;28;20050;-80
2023/03/08 04:24:05;;;;;;;7.97;5.72;;;2.00;99.90;;;;;;4992785;28;20122;-80
2023/03/08 04:26:32;;;;;;;7.22;5.43;;;2.00;99.90;;;;;;4978512;28;20077;-81
2023/03/08 04:28:59;;;;;;;7.82;5.70;;;1.90;99.90;;;;;;4992081;28;20042;-80
2023/03/08 04:31:27;;;;;;;7.65;5.80;;;1.90;99.90;;;;;;4993935;28;20107;-81
2023/03/08 04:33:54;;;;;;;7.82;5.93;;;1.80;99.90;;;;;;5028063;28;20514;-81
2023/03/08 04:36:21;;;;;;;6.32;4.63;;;1.80;99.90;;;;;;5003231;28;20128;-81
2023/03/08 04:38:48;;;;;;;5.63;4.57;;;1.70;99.90;;;;;;5008365;28;20464;-80
2023/03/08 04:41:18;;;;;;;6.65;4.80;;;1.70;99.90;;;;;;4994088;28;20053;-81
2023/03/08 04:43:47;;;;;;;6.93;4.75;;;1.70;99.90;;;;;;5008644;28;20098;-81
2023/03/08 04:46:14;;;;;;;6.82;4.20;;;1.70;99.90;;;;;;5010268;28;20080;-80
2023/03/08 04:48:41;;;;;;;5.95;3.90;;;1.70;99.90;;;;;;4991149;28;20623;-80
2023/03/08 04:51:10;;;;;;;5.30;4.10;;;1.70;99.90;;;;;;4992717;28;20429;-79
2023/03/08 04:53:38;;;;;;;5.10;3.80;;;1.70;99.90;;;;;;5008681;28;20057;-79
2023/03/08 04:56:05;;;;;;;5.75;3.92;;;1.70;99.90;;;;;;4993688;28;20558;-80
2023/03/08 04:58:32;;;;;;;5.53;4.25;;;1.70;99.90;;;;;;5009082;28;20060;-80
2023/03/08 05:00:59;;;;;;;6.15;3.45;;;1.70;99.90;;;;;;4989463;28;20700;-81
2023/03/08 05:03:26;;;;;;;4.95;4.15;;;1.70;99.90;;;;;;4990734;28;20127;-80
2023/03/08 05:05:54;;;;;;;6.28;4.00;;;1.70;99.90;;;;;;4975466;28;20041;-79
2023/03/08 05:08:22;;;;;;;5.47;3.70;;;1.60;99.90;;;;;;5003800;28;20109;-80
2023/03/08 05:10:59;;;;;;;5.28;4.03;;;1.60;99.90;;;;;;5008643;28;20372;-81
2023/03/08 05:13:28;;;;;;;5.13;4.07;;;1.60;99.90;;;;;;5023900;28;20140;-80
2023/03/08 05:15:55;;;;;;;4.72;3.65;;;1.60;99.90;;;;;;4976426;28;20523;-80
2023/03/08 05:18:23;;;;;;;4.97;3.83;;;1.60;99.90;;;;;;4992006;28;20119;-80
2023/03/08 05:21:14;;;;;;;5.95;3.88;;;1.60;99.90;;;;;;4985005;28;20052;-81
2023/03/08 05:23:41;;;;;;;5.10;3.88;;;1.60;99.90;;;;;;4986634;28;20116;-81
2023/03/08 05:26:09;;;;;;;5.00;3.80;;;1.60;99.90;;;;;;4977025;28;20095;-80
2023/03/08 05:28:37;;;;;;;6.32;4.80;;;1.60;99.90;;;;;;4992835;28;20473;-80
2023/03/08 05:31:06;;;;;;;5.15;4.07;;;1.60;99.90;;;;;;5009009;28;20433;-81
2023/03/08 05:33:34;;;;;;;3.63;3.03;;;1.60;99.90;;;;;;5023441;28;20080;-80
2023/03/08 05:36:01;;;;;;;4.88;4.00;;;1.60;99.90;;;;;;4981591;28;20041;-80
2023/03/08 05:38:28;;;;;;;5.32;3.95;;;1.60;99.90;;;;;;5008331;28;20057;-81
2023/03/08 05:41:02;;;;;;;4.43;3.30;;;1.60;99.90;;;;;;4987774;28;20139;-80
2023/03/08 05:43:29;;;;;;;4.43;3.22;;;1.60;99.90;;;;;;5005690;28;20551;-81
2023/03/08 05:45:58;;;;;;;4.18;3.38;;;1.60;99.90;;;;;;5009133;28;20045;-81
2023/03/08 05:48:25;;;;;;;3.80;3.30;;;1.60;99.90;;;;;;4987910;28;20058;-80
2023/03/08 05:50:52;;;;;;;3.58;3.03;;;1.60;99.90;;;;;;4974478;28;20085;-80
2023/03/08 05:53:20;;;;;;;3.60;2.38;;;1.60;99.90;;;;;;5006589;28;20164;-81
2023/03/08 05:55:47;;;;;;;3.72;2.95;;;1.60;99.90;;;;;;4990213;28;20132;-80
2023/03/08 05:58:14;;;;;;;3.42;2.72;;;1.60;99.90;;;;;;5008172;28;20346;-81
2023/03/08 06:00:41;;;;;;;2.90;2.30;;;1.60;99.90;;;;;;4987408;28;20132;-80
2023/03/08 06:03:08;;;;;;;3.13;2.75;;;1.60;99.90;;;;;;5004964;28;20377;-79
2023/03/08 06:05:36;;;;;;;2.90;2.13;;;1.60;99.90;;;;;;4982117;28;20048;-81
2023/03/08 06:08:03;;;;;;;3.53;2.47;;;1.60;99.90;;;;;;4987459;28;20523;-81
2023/03/08 06:10:30;;;;;;;3.33;2.35;;;1.60;99.90;;;;;;4983702;28;20041;-81
2023/03/08 06:12:57;;;;;;;3.40;2.35;;;1.60;99.90;;;;;;5001669;28;20076;-80
2023/03/08 06:15:24;;;;;;;2.75;2.25;;;1.60;99.90;;;;;;4983437;28;20497;-80
2023/03/08 06:17:52;;;;;;;2.63;1.90;;;1.60;99.90;;;;;;4967998;28;20448;-80
2023/03/08 06:20:20;;;;;;;2.95;2.15;;;1.60;99.90;;;;;;4965084;28;20493;-78
2023/03/08 06:22:47;;;;;;;2.55;2.03;;;1.60;99.90;;;;;;4994037;28;20060;-80
2023/03/08 06:25:14;;;;;;;2.50;1.90;;;1.60;99.90;;;;;;5009847;28;20235;-78
2023/03/08 06:27:42;;;;;;;2.63;1.98;;;1.60;99.90;;;;;;5003542;28;20092;-80
2023/03/08 06:30:09;;;;;;;2.80;2.15;;;1.60;99.90;;;;;;5000403;28;20064;-79
2023/03/08 06:32:36;;;;;;;3.30;2.60;;;1.60;99.90;;;;;;4972663;28;20111;-79
2023/03/08 06:35:03;;;;;;;3.00;2.45;;;1.60;99.90;;;;;;5002109;28;20471;-79
2023/03/08 06:37:32;;;;;;;2.92;2.10;;;1.60;99.90;;;;;;4997782;28;20132;-76
2023/03/08 06:40:00;;;;;;;2.70;2.20;;;1.60;99.90;;;;;;4982093;28;20143;-77
2023/03/08 06:42:27;;;;;;;3.17;2.30;;;1.60;99.90;;;;;;4978427;28;20104;-78
2023/03/08 06:45:08;;;;;;;2.63;2.08;;;1.60;99.90;;;;;;5014868;28;20087;-77
2023/03/08 06:47:34;;;;;;;3.15;2.20;;;1.60;99.90;;;;;;4999153;28;20826;-78
2023/03/08 06:50:02;;;;;;;3.92;2.00;;;1.60;99.90;;;;;;5008729;28;20041;-77
2023/03/08 06:52:36;;;;;;;2.55;1.92;;;1.60;99.90;;;;;;5000918;28;20402;-78
2023/03/08 06:55:04;;;;;;;3.13;2.67;;;1.60;99.90;;;;;;4983319;28;20459;-77
2023/03/08 06:57:31;;;;;;;3.22;2.70;;;1.60;99.90;;;;;;4980992;28;20046;-78
2023/03/08 06:59:58;;;;;;;3.30;2.60;;;1.60;99.90;;;;;;5011167;28;20773;-77
2023/03/08 07:02:25;;;;;;;3.25;2.47;;;1.50;99.90;;;;;;5020068;28;20049;-77
2023/03/08 07:04:52;;;;;;;3.20;2.45;;;1.60;99.90;;;;;;4988551;28;20071;-77
2023/03/08 07:07:19;;;;;;;2.90;2.47;;;1.60;99.90;;;;;;4974469;28;20050;-78
2023/03/08 07:09:47;;;;;;;2.97;2.47;;;1.60;99.90;;;;;;4981785;28;20041;-77
2023/03/08 07:12:13;;;;;;;3.75;2.40;;;1.60;99.90;;;;;;4981713;28;20175;-77
2023/03/08 07:14:40;;;;;;;2.70;2.13;;;1.60;99.90;;;;;;5012981;28;20581;-79
2023/03/08 07:17:07;;;;;;;2.72;1.95;;;1.70;99.90;;;;;;4992311;28;20132;-76
2023/03/08 07:19:34;;;;;;;2.58;1.95;;;1.70;99.90;;;;;;4993614;28;20081;-77
2023/03/08 07:22:01;;;;;;;2.63;1.60;;;1.80;99.90;;;;;;4973144;28;20373;-80
2023/03/08 07:24:28;;;;;;;2.97;2.00;;;1.80;99.90;;;;;;4981684;28;20050;-78
2023/03/08 07:26:55;;;;;;;1.88;1.40;;;1.80;99.90;;;;;;4996753;28;20053;-78
2023/03/08 07:29:22;;;;;;;2.90;2.20;;;1.80;99.90;;;;;;4995670;28;20587;-79
2023/03/08 07:31:49;;;;;;;2.45;1.85;;;1.70;99.90;;;;;;4979823;28;20041;-79
2023/03/08 07:34:15;;;;;;;1.70;1.20;;;1.70;99.90;;;;;;4980921;28;20179;-79
2023/03/08 07:36:42;;;;;;;2.20;1.50;;;1.70;99.90;;;;;;4994264;28;20140;-78
2023/03/08 07:39:10;;;;;;;1.42;1.10;;;1.70;99.90;;;;;;4996694;28;20049;-79
2023/03/08 07:41:37;;;;;;;1.95;1.40;;;1.70;99.90;;;;;;5017130;28;20133;-79
2023/03/08 07:44:04;;;;;;;1.95;1.40;;;1.80;99.90;;;;;;5031484;28;20045;-78
2023/03/08 07:46:31;;;;;;;1.88;1.40;;;1.80;99.90;;;;;;4987752;28;20115;-78
2023/03/08 07:48:58;;;;;;;1.88;1.38;;;1.80;99.90;;;;;;4996200;28;20169;-79
2023/03/08 07:51:25;;;;;;;2.20;1.20;;;1.90;99.90;;;;;;4972088;28;20154;-79
2023/03/08 07:53:53;;;;;;;1.90;1.63;;;1.90;99.90;;;;;;4996792;28;20444;-78
2023/03/08 07:56:20;;;;;;;1.85;1.30;;;1.90;99.90;;;;;;5023505;28;20106;-77
2023/03/08 07:58:47;;;;;;;1.40;1.17;;;1.90;99.90;;;;;;5023327;28;20451;-77
2023/03/08 08:01:14;;;;;;;1.42;1.15;;;1.90;99.90;;;;;;5007297;28;20194;-78
2023/03/08 08:03:42;;;;;;;1.60;1.15;;;2.00;99.90;;;;;;5022044;28;20131;-79
2023/03/08 08:06:09;;;;;;;1.67;1.35;;;2.00;99.90;;;;;;5006117;28;20049;-76
2023/03/08 08:08:36;;;;;;;2.00;1.48;;;2.00;99.90;;;;;;4990959;28;20059;-78
2023/03/08 08:11:12;;;;;;;1.70;1.40;;;1.90;99.90;;;;;;5023102;28;20080;-78
2023/03/08 08:13:39;;;;;;;2.42;1.20;;;2.00;99.90;;;;;;5023538;28;20060;-78
2023/03/08 08:16:06;;;;;;;1.30;1.20;;;2.00;99.90;;;;;;5023452;28;20049;-78
2023/03/08 08:18:34;;;;;;;1.67;1.40;;;2.00;99.90;;;;;;5005313;28;20198;-78
2023/03/08 08:21:05;;;;;;;1.38;1.27;;;2.00;99.90;;;;;;5006615;28;20138;-78
2023/03/08 08:23:32;;;;;;;1.60;1.25;;;2.10;99.90;;;;;;5006759;28;20195;-78
2023/03/08 08:25:59;;;;;;;8.98;4.47;;;2.10;99.90;;;;;;4991123;28;20048;-78
2023/03/08 08:28:26;;;;;;;2.70;1.50;;;2.10;99.90;;;;;;4995131;28;20058;-77
2023/03/08 08:30:58;;;;;;;1.55;1.25;;;2.10;99.90;;;;;;4982813;28;20061;-77
2023/03/08 08:33:26;;;;;;;1.85;1.60;;;2.10;99.90;;;;;;4986165;28;20599;-76
2023/03/08 08:35:54;;;;;;;1.65;1.52;;;2.20;99.90;;;;;;5005697;28;20086;-78
2023/03/08 08:38:22;;;;;;;2.03;1.75;;;2.20;99.90;;;;;;5040885;28;20147;-77
2023/03/08 08:40:50;;;;;;;1.60;1.30;;;2.20;99.90;;;;;;4990210;28;20052;-78
2023/03/08 08:43:17;;;;;;;2.03;1.50;;;2.30;99.90;;;;;;5039992;28;20182;-77
2023/03/08 08:45:48;;;;;;;1.63;1.40;;;2.30;99.90;;;;;;5005878;28;20362;-78
2023/03/08 08:48:17;;;;;;;1.98;1.60;;;2.40;99.90;;;;;;4989357;28;20516;-77
2023/03/08 08:50:44;;;;;;;1.70;1.58;;;2.40;99.90;;;;;;5005190;28;20231;-78
2023/03/08 08:53:10;;;;;;;1.80;1.70;;;2.50;99.90;;;;;;4990765;28;20126;-77
2023/03/08 08:55:37;;;;;;;2.10;1.60;;;2.50;99.90;;;;;;4980375;28;20057;-77
2023/03/08 08:58:07;;;;;;;1.83;1.60;;;2.50;99.90;;;;;;4998390;28;20052;-78
2023/03/08 09:00:34;;;;;;;2.28;1.95;;;2.50;99.90;;;;;;4982165;28;20053;-77
2023/03/08 09:03:02;;;;;;;3.03;2.20;;;2.50;99.90;;;;;;4998897;28;20060;-77
2023/03/08 09:05:29;;;;;;;2.65;2.05;;;2.50;99.90;;;;;;4979573;28;20099;-78
2023/03/08 09:07:59;;;;;;;2.53;2.08;;;2.50;99.90;;;;;;5020661;28;20069;-78
2023/03/08 09:10:27;;;;;;;3.05;1.90;;;2.40;99.90;;;;;;4982597;28;20136;-78
2023/03/08 09:12:54;;;;;;;2.55;2.00;;;2.50;99.90;;;;;;4980061;28;20083;-78
2023/03/08 09:15:24;;;;;;;1.90;1.65;;;2.50;99.90;;;;;;4990340;28;20146;-77
2023/03/08 09:17:52;;;;;;;1.70;1.60;;;2.50;99.90;;;;;;5001733;28;20246;-78
2023/03/08 09:20:19;;;;;;;2.15;1.80;;;2.50;99.90;;;;;;4980206;28;20049;-77
2023/03/08 09:22:49;;;;;;;1.70;1.50;;;2.50;99.90;;;;;;4985265;28;20068;-78
2023/03/08 09:25:18;;;;;;;1.60;1.33;;;2.60;99.90;;;;;;4987671;28;20067;-78
2023/03/08 09:27:45;;;;;;;1.70;1.40;;;2.60;99.90;;;;;;5000219;28;20060;-78
2023/03/08 09:30:14;;;;;;;1.45;1.20;;;2.70;99.90;;;;;;4997181;28;20587;-78
2023/03/08 09:32:41;;;;;;;1.90;1.73;;;2.70;99.90;;;;;;4982828;28;20085;-78
2023/03/08 09:35:09;;;;;;;1.52;1.42;;;2.70;99.90;;;;;;4975887;28;20531;-78
2023/03/08 09:37:35;;;;;;;1.23;1.13;;;2.70;99.90;;;;;;4984647;28;20635;-77
2023/03/08 09:40:08;;;;;;;1.33;1.20;;;2.70;99.90;;;;;;4984248;28;20096;-77
2023/03/08 09:42:37;;;;;;;1.40;1.30;;;2.70;99.90;;;;;;4979968;28;20536;-78
2023/03/08 09:45:06;;;;;;;1.95;1.48;;;2.70;99.90;;;;;;5000922;28;20791;-77
2023/03/08 09:48:07;;;;;;;1.35;1.25;;;2.70;99.90;;;;;;5018536;28;20119;-77
2023/03/08 09:50:42;;;;;;;2.55;1.20;;;2.80;99.90;;;;;;4982788;28;20811;-77
2023/03/08 09:53:15;;;;;;;2.00;1.60;;;2.80;99.90;;;;;;5001276;28;20396;-77
2023/03/08 09:56:23;;;;;;;1.98;1.55;;;2.80;99.90;;;;;;5008529;28;20623;-77
2023/03/08 09:58:57;;;;;;;1.85;1.50;;;2.80;99.90;;;;;;5041638;28;20199;-77
2023/03/08 10:01:42;;;;;;;1.50;1.40;;;2.90;99.90;;;;;;5023977;28;20053;-78
2023/03/08 10:04:27;;;;;;;2.00;1.80;;;2.80;99.90;;;;;;5008323;28;20053;-77
2023/03/08 10:07:00;;;;;;;3.13;1.88;;;2.80;99.90;;;;;;5023157;28;20496;-77
2023/03/08 10:09:32;;;;;;;2.08;1.88;;;2.80;99.90;;;;;;5041637;28;20067;-78
2023/03/08 10:12:10;;;;;;;1.95;1.70;;;2.80;99.90;;;;;;5042225;28;20065;-77
2023/03/08 10:14:48;;;;;;;1.75;1.50;;;2.80;99.90;;;;;;5010537;28;20137;-78
2023/03/08 10:17:20;;;;;;;1.70;1.50;;;2.80;99.90;;;;;;4988855;28;20286;-78
2023/03/08 10:20:00;;;;;;;2.35;1.60;;;2.80;99.90;;;;;;4979713;28;20128;-78
2023/03/08 10:22:33;;;;;;;2.25;1.67;;;2.80;99.90;;;;;;5003910;28;20401;-77
2023/03/08 10:25:23;;;;;;;1.75;1.60;;;2.70;99.90;;;;;;5007821;28;20132;-77
2023/03/08 10:27:53;;;;;;;3.28;1.80;;;2.80;99.90;;;;;;4988463;28;20123;-78
2023/03/08 10:30:21;;;;;;;2.33;1.55;;;2.70;99.90;;;;;;4987559;28;20087;-78
2023/03/08 10:32:50;;;;;;;2.65;1.70;;;2.70;99.90;;;;;;5009037;28;20341;-77
2023/03/08 10:35:17;;;;;;;2.13;1.42;;;2.70;99.90;;;;;;4989107;28;20150;-77
2023/03/08 10:37:49;;;;;;;2.17;1.63;;;2.80;99.90;;;;;;4990682;28;20287;-78
2023/03/08 10:40:19;;;;;;;1.95;1.48;;;2.80;99.90;;;;;;4990996;28;20607;-78
2023/03/08 10:42:52;;;;;;;2.17;1.58;;;2.90;99.90;;;;;;5007569;28;20057;-78
2023/03/08 10:45:21;;;;;;;1.90;1.70;;;2.90;99.90;;;;;;4991234;28;20130;-78
2023/03/08 10:47:55;;;;;;;2.65;1.48;;;2.90;99.90;;;;;;4991313;28;20057;-76
2023/03/08 10:50:25;;;;;;;1.58;1.40;;;3.00;99.90;;;;;;5021819;28;20053;-76
2023/03/08 10:52:52;;;;;;;2.47;1.45;;;3.00;99.90;;;;;;4991070;28;20048;-77
2023/03/08 10:55:25;;;;;;;2.92;1.80;;;3.10;99.90;;;;;;5022522;28;20056;-76
2023/03/08 10:57:53;;;;;;;2.40;1.77;;;3.10;99.90;;;;;;5007040;28;20041;-77
2023/03/08 11:00:29;;;;;;;3.78;1.70;;;3.20;99.90;;;;;;5006543;28;20471;-77
2023/03/08 11:03:18;;;;;;;2.08;1.60;;;3.10;99.90;;;;;;4988663;28;20136;-77
2023/03/08 11:05:52;;;;;;;2.33;1.75;;;3.10;99.90;;;;;;5021631;28;20049;-77
2023/03/08 11:08:46;;;;;;;1.98;1.70;;;3.10;99.90;;;;;;5022648;28;20563;-77
2023/03/08 11:11:13;;;;;;;2.70;1.88;;;3.10;99.90;;;;;;4999397;28;20053;-78
2023/03/08 11:13:43;;;;;;;2.25;1.60;;;3.20;99.90;;;;;;4989413;28;20045;-77
2023/03/08 11:16:18;;;;;;;1.55;1.20;;;3.30;99.90;;;;;;5006512;28;20049;-77
2023/03/08 11:19:13;;;;;;;1.65;1.30;;;3.30;99.90;;;;;;5021848;28;20061;-77
2023/03/08 11:21:58;;;;;;;2.08;1.33;;;3.30;99.90;;;;;;5021812;28;20140;-77
2023/03/08 11:25:06;;;;;;;1.73;1.25;;;3.30;99.90;;;;;;5039570;28;20052;-76
2023/03/08 11:28:01;;;;;;;1.25;1.10;;;3.40;99.90;;;;;;4993403;28;20754;-76
2023/03/08 11:30:34;;;;;;;2.25;1.92;;;3.40;99.90;;;;;;5022382;28;20065;-77
2023/03/08 11:33:03;;;;;;;2.22;1.50;;;3.40;99.90;;;;;;5022264;28;20066;-77
2023/03/08 11:36:06;;;;;;;2.15;1.73;;;3.40;99.90;;;;;;5020573;28;20068;-77
2023/03/08 11:38:34;;;;;;;1.70;1.55;;;3.40;99.90;;;;;;5008490;28;20045;-77
2023/03/08 11:41:13;;;;;;;2.13;1.70;;;3.50;99.90;;;;;;5006360;28;20476;-77
2023/03/08 11:43:46;;;;;;;2.20;1.38;;;3.50;99.90;;;;;;5006871;28;20053;-78
2023/03/08 11:46:20;;;;;;;1.98;1.77;;;3.40;99.90;;;;;;5006010;28;20729;-77
2023/03/08 11:49:13;;;;;;;3.28;1.50;;;3.50;99.90;;;;;;5011424;28;20058;-76
2023/03/08 11:51:46;;;;;;;1.60;1.30;;;3.50;99.90;;;;;;4995041;28;20144;-77
2023/03/08 11:54:50;;;;;;;2.42;1.40;;;3.40;99.90;;;;;;5005642;28;20080;-77
2023/03/08 11:57:17;;;;;;;1.90;1.60;;;3.30;99.90;;;;;;5015322;28;20465;-77
2023/03/08 11:59:51;;;;;;;2.97;1.85;;;3.30;99.90;;;;;;4993525;28;20053;-77
2023/03/08 12:02:24;;;;;;;1.85;1.30;;;3.30;99.90;;;;;;4978625;28;20088;-77
2023/03/08 12:05:06;;;;;;;2.25;1.58;;;3.40;99.90;;;;;;4993804;28;20404;-77
2023/03/08 12:08:11;;;;;;;1.60;1.50;;;3.40;99.90;;;;;;4969160;28;20112;-77
2023/03/08 12:11:06;;;;;;;2.25;1.38;;;3.50;99.90;;;;;;4915744;29;20684;-78
2023/03/08 12:13:43;;;;;;;3.20;1.70;;;3.50;99.90;;;;;;4980497;28;20046;-78
2023/03/08 12:16:24;;;;;;;2.88;1.60;;;3.40;99.90;;;;;;4962834;28;20057;-76
2023/03/08 12:19:18;;;;;;;2.13;1.40;;;3.40;99.90;;;;;;4977711;28;20108;-78
2023/03/08 12:22:08;;;;;;;;;;;3.50;99.90;;;;;;4994786;28;20055;-78
2023/03/08 12:24:53;;;;;;;2.15;1.23;;;3.40;99.90;;;;;;4996153;28;20482;-78
2023/03/08 12:27:34;;;;;;;2.08;1.83;;;3.30;99.90;;;;;;4999476;28;20465;-77
2023/03/08 12:30:13;;;;;;;3.53;2.00;;;3.30;99.90;;;;;;5016338;28;20568;-77
2023/03/08 12:32:40;;;;;;;3.58;1.85;;;3.30;99.90;;;;;;5003961;28;20065;-77
2023/03/08 12:35:19;;;;;;;1.80;1.30;;;3.30;99.90;;;;;;4985247;28;20573;-77
2023/03/08 12:37:55;;;;;;;2.35;1.40;;;3.30;99.90;;;;;;5040269;28;20326;-77
2023/03/08 12:40:35;;;;;;;2.38;1.80;;;3.40;99.90;;;;;;5005611;28;20164;-77
2023/03/08 12:43:10;;;;;;;2.70;1.90;;;3.40;99.90;;;;;;4984313;28;20048;-77
2023/03/08 12:45:38;;;;;;;2.75;1.60;;;3.40;99.90;;;;;;4984149;28;20799;-77
2023/03/08 12:48:04;;;;;;;2.35;1.40;;;3.40;99.90;;;;;;4983842;28;20054;-78
2023/03/08 12:50:56;;;;;;;2.45;1.65;;;3.40;99.90;;;;;;5000031;28;20049;-77
2023/03/08 12:53:47;;;;;;;1.90;1.40;;;3.40;99.90;;;;;;5000847;28;20221;-75
2023/03/08 12:56:31;;;;;;;2.08;1.50;;;3.40;99.90;;;;;;5014435;28;20437;-78
2023/03/08 12:58:59;;;;;;;;;;;3.30;99.90;;;;;;5000426;28;20187;-78
2023/03/08 13:01:30;;;;;;;1.88;1.10;;;3.40;99.90;;;;;;5018356;28;20031;-78
2023/03/08 13:03:57;;;;;;;2.78;1.80;;;3.40;99.90;;;;;;5007291;28;20111;-78
2023/03/08 13:06:24;;;;;;;2.60;1.35;;;3.40;99.90;;;;;;4995351;28;20063;-79
2023/03/08 13:09:06;;;;;;;2.05;1.63;;;3.40;99.90;;;;;;5002106;28;20110;-79
2023/03/08 13:11:37;;;;;;;2.00;1.50;;;3.50;99.90;;;;;;4993746;28;20062;-78
2023/03/08 13:14:37;;;;;;;2.53;1.50;;;3.50;99.90;;;;;;4990189;28;20049;-78
2023/03/08 13:17:30;;;;;;;1.55;1.45;;;3.40;99.90;;;;;;4972503;28;20052;-78